Time;durP1;ratioP1;P1;durP2;ratioP2;P2;SDS_P1;SDS_P2;PMS_P1;PMS_P2;Temp;Humidity;BMP_temperature;BMP_pressure;BME280_temperature;BME280_humidity;BME280_pressure;Samples;Min_cycle;Max_cycle;Signal;HPM_P1;HPM_P2
2022/03/07 00:02:05;;;;;;;12.70;7.50;;;;;;;3.24;54.28;100906.65;116896;1189;23676;-50
2022/03/07 00:04:54;;;;;;;14.20;7.70;;;;;;;3.25;54.24;100908.26;116919;1189;23553;-50
2022/03/07 00:07:23;;;;;;;12.70;7.50;;;;;;;3.23;54.22;100902.66;116955;1188;23448;-50
2022/03/07 00:09:51;;;;;;;11.00;6.60;;;;;;;3.19;54.27;100898.05;116926;1189;22096;-62
2022/03/07 00:12:20;;;;;;;10.30;6.70;;;;;;;3.20;54.20;100897.01;116978;1189;24177;-50
2022/03/07 00:14:51;;;;;;;11.50;7.30;;;;;;;3.18;54.13;100896.28;117007;1188;21853;-49
2022/03/07 00:17:19;;;;;;;11.50;6.90;;;;;;;3.22;54.15;100892.23;116952;1188;24309;-61
2022/03/07 00:19:48;;;;;;;12.20;6.80;;;;;;;3.26;54.07;100895.28;116974;1188;23653;-50
2022/03/07 00:22:17;;;;;;;11.40;6.10;;;;;;;3.25;54.18;100892.65;116935;1188;23716;-61
2022/03/07 00:24:45;;;;;;;12.10;6.70;;;;;;;3.26;54.12;100888.84;116816;1189;23566;-61
2022/03/07 00:27:13;;;;;;;9.30;6.30;;;;;;;3.30;54.07;100886.70;116892;1189;21915;-49
2022/03/07 00:29:42;;;;;;;12.00;7.00;;;;;;;3.31;54.10;100884.12;116964;1188;22912;-61
2022/03/07 00:32:22;;;;;;;11.10;6.70;;;;;;;3.33;54.02;100878.77;116865;1188;22728;-49
2022/03/07 00:34:51;;;;;;;10.70;6.50;;;;;;;3.32;54.04;100873.38;116973;1188;21854;-49
2022/03/07 00:37:39;;;;;;;10.50;6.30;;;;;;;3.32;54.10;100871.48;116942;1188;21853;-62
2022/03/07 00:40:10;;;;;;;8.30;5.30;;;;;;;3.32;53.92;100870.96;116951;1188;22000;-62
2022/03/07 00:42:38;;;;;;;9.70;5.60;;;;;;;3.33;54.04;100867.85;116938;1188;21854;-49
2022/03/07 00:45:10;;;;;;;8.70;6.00;;;;;;;3.34;53.99;100861.29;116922;1189;21877;-49
2022/03/07 00:47:39;;;;;;;9.20;5.90;;;;;;;3.34;54.00;100858.88;116903;1189;21863;-49
2022/03/07 00:50:10;;;;;;;10.20;6.70;;;;;;;3.32;54.02;100855.88;116961;1189;24189;-62
2022/03/07 00:52:40;;;;;;;10.60;6.90;;;;;;;3.31;54.03;100849.42;116933;1188;21856;-60
2022/03/07 00:55:09;;;;;;;10.90;6.20;;;;;;;3.29;53.90;100849.21;116929;1189;23032;-62
2022/03/07 00:57:37;;;;;;;9.70;6.00;;;;;;;3.26;53.82;100839.42;116968;1188;21896;-48
2022/03/07 01:00:07;;;;;;;8.60;5.00;;;;;;;3.24;53.89;100839.71;116955;1188;23467;-61
2022/03/07 01:02:38;;;;;;;16.50;9.70;;;;;;;3.24;53.87;100837.80;116793;1190;21880;-49
2022/03/07 01:05:07;;;;;;;18.50;10.80;;;;;;;3.23;54.03;100837.95;116870;1188;21851;-60
2022/03/07 01:07:39;;;;;;;16.00;9.70;;;;;;;3.23;54.11;100836.91;116937;1189;23539;-61
2022/03/07 01:10:07;;;;;;;14.30;8.30;;;;;;;3.23;53.95;100836.08;117005;1188;23579;-61
2022/03/07 01:12:56;;;;;;;10.80;6.30;;;;;;;3.25;54.10;100831.94;116927;1188;23494;-63
2022/03/07 01:15:25;;;;;;;9.60;6.10;;;;;;;3.25;53.94;100829.17;116970;1189;23459;-49
2022/03/07 01:17:54;;;;;;;9.40;5.60;;;;;;;3.23;54.00;100824.09;116982;1185;23602;-62
2022/03/07 01:20:23;;;;;;;11.00;7.00;;;;;;;3.23;54.04;100820.43;116943;1189;22915;-50
2022/03/07 01:22:52;;;;;;;10.50;6.70;;;;;;;3.23;54.06;100811.95;116822;1189;23453;-62
2022/03/07 01:25:20;;;;;;;10.70;6.00;;;;;;;3.22;53.90;100810.54;116943;1189;24249;-63
2022/03/07 01:27:49;;;;;;;10.00;6.10;;;;;;;3.21;54.13;100806.87;116947;1188;23464;-61
2022/03/07 01:30:18;;;;;;;9.70;5.20;;;;;;;3.21;54.03;100807.02;116971;1189;22651;-49
2022/03/07 01:32:46;;;;;;;9.90;5.60;;;;;;;3.20;54.12;100804.93;116949;1189;22613;-61
2022/03/07 01:35:15;;;;;;;8.70;5.40;;;;;;;3.20;54.14;100805.27;116827;1189;23560;-49
2022/03/07 01:37:43;;;;;;;11.00;6.00;;;;;;;3.20;54.02;100807.52;116932;1188;22156;-50
2022/03/07 01:40:12;;;;;;;8.70;5.60;;;;;;;3.20;53.98;100800.09;116924;1188;23483;-63
2022/03/07 01:42:41;;;;;;;7.90;5.20;;;;;;;3.21;54.02;100799.40;116982;1188;24181;-62
2022/03/07 01:45:14;;;;;;;8.90;5.10;;;;;;;3.20;54.02;100794.53;116882;1188;23442;-51
2022/03/07 01:47:43;;;;;;;10.00;6.10;;;;;;;3.21;54.00;100792.64;116808;1190;23645;-63
2022/03/07 01:50:14;;;;;;;8.00;5.80;;;;;;;3.21;53.99;100791.77;116788;1190;21857;-62
2022/03/07 01:52:44;;;;;;;7.50;5.50;;;;;;;3.20;53.99;100791.05;116773;1189;21863;-52
2022/03/07 01:55:13;;;;;;;8.50;5.40;;;;;;;3.20;54.02;100791.05;116790;1189;22931;-61
2022/03/07 01:57:44;;;;;;;10.20;6.10;;;;;;;3.20;53.95;100787.25;116956;1189;21846;-50
2022/03/07 02:00:15;;;;;;;8.40;5.50;;;;;;;3.20;53.90;100788.98;116916;1189;23645;-62
2022/03/07 02:02:44;;;;;;;8.90;4.90;;;;;;;3.21;54.03;100789.88;116942;1188;22167;-62
2022/03/07 02:05:13;;;;;;;8.10;5.10;;;;;;;3.20;54.02;100791.73;117031;1188;22660;-60
2022/03/07 02:07:48;;;;;;;7.50;5.20;;;;;;;3.19;53.96;100792.23;116874;1188;21854;-61
2022/03/07 02:10:17;;;;;;;8.00;5.10;;;;;;;3.19;54.02;100793.80;116925;1189;23453;-50
2022/03/07 02:12:45;;;;;;;8.20;5.10;;;;;;;3.19;54.15;100793.98;116942;1189;23640;-61
2022/03/07 02:15:14;;;;;;;9.40;5.10;;;;;;;3.20;54.11;100794.89;116933;1189;23570;-62
2022/03/07 02:17:45;;;;;;;9.30;5.20;;;;;;;3.20;54.10;100793.31;116839;1189;21905;-61
2022/03/07 02:20:13;;;;;;;;;;;;;;;3.19;54.10;100789.28;116909;1189;22288;-51
2022/03/07 02:22:42;;;;;;;7.90;4.80;;;;;;;3.17;54.04;100782.31;116906;1188;22556;-62
2022/03/07 02:25:11;;;;;;;8.20;5.50;;;;;;;3.16;54.11;100780.55;116791;1190;21897;-62
2022/03/07 02:27:40;;;;;;;9.50;6.20;;;;;;;3.15;54.16;100781.04;117032;1188;24169;-62
2022/03/07 02:30:09;;;;;;;7.80;5.00;;;;;;;3.08;54.08;100776.73;116863;1188;21946;-49
2022/03/07 02:32:42;;;;;;;8.40;5.30;;;;;;;3.08;54.10;100773.95;116962;1189;21852;-50
2022/03/07 02:35:12;;;;;;;10.30;5.70;;;;;;;3.05;54.07;100776.31;116921;1188;21867;-63
2022/03/07 02:37:41;;;;;;;8.20;5.20;;;;;;;2.97;54.19;100776.98;116982;1189;23655;-50
2022/03/07 02:40:11;;;;;;;7.50;5.00;;;;;;;2.96;54.35;100777.29;116980;1190;23475;-62
2022/03/07 02:43:00;;;;;;;8.70;5.80;;;;;;;2.95;54.29;100770.69;116903;1189;23446;-57
2022/03/07 02:45:29;;;;;;;9.20;5.70;;;;;;;2.95;54.17;100775.35;116972;1189;23666;-63
2022/03/07 02:47:58;;;;;;;8.50;5.50;;;;;;;2.95;54.17;100772.06;116876;1185;23637;-50
2022/03/07 02:50:26;;;;;;;7.40;5.20;;;;;;;2.95;54.35;100767.90;116936;1189;23610;-50
2022/03/07 02:52:56;;;;;;;9.00;5.80;;;;;;;2.95;54.36;100765.29;116976;1189;21921;-63
2022/03/07 02:55:24;;;;;;;8.90;5.70;;;;;;;2.95;54.32;100762.34;116892;1189;22607;-63
2022/03/07 02:57:53;;;;;;;8.20;5.60;;;;;;;2.93;54.29;100764.21;116994;1188;23656;-62
2022/03/07 03:00:22;;;;;;;10.80;6.10;;;;;;;2.92;54.33;100761.75;117022;1189;23656;-51
2022/03/07 03:02:50;;;;;;;9.80;6.50;;;;;;;2.92;54.19;100756.39;116975;1188;22608;-50
2022/03/07 03:05:19;;;;;;;9.50;6.00;;;;;;;2.93;54.25;100754.66;116940;1189;23452;-50
2022/03/07 03:07:53;;;;;;;10.90;6.50;;;;;;;2.94;54.33;100751.74;116992;1188;22947;-50
2022/03/07 03:10:22;;;;;;;8.80;5.70;;;;;;;2.94;54.44;100749.16;116946;1188;23577;-62
2022/03/07 03:12:52;;;;;;;8.60;5.80;;;;;;;2.94;54.45;100746.73;116969;1188;21855;-50
2022/03/07 03:15:20;;;;;;;9.20;6.00;;;;;;;2.96;54.35;100747.30;117046;1188;23069;-63
2022/03/07 03:17:49;;;;;;;11.40;6.90;;;;;;;2.96;54.41;100747.11;117000;1188;23598;-62
2022/03/07 03:20:18;;;;;;;9.90;5.90;;;;;;;2.95;54.39;100749.54;116885;1190;23605;-50
2022/03/07 03:22:46;;;;;;;8.40;5.20;;;;;;;2.95;54.39;100750.20;117067;1189;23579;-63
2022/03/07 03:25:15;;;;;;;10.00;5.80;;;;;;;2.94;54.39;100746.20;116975;1188;22634;-48
2022/03/07 03:27:44;;;;;;;9.10;6.00;;;;;;;2.94;54.41;100745.67;116989;1188;21856;-61
2022/03/07 03:30:13;;;;;;;9.20;5.70;;;;;;;2.94;54.33;100743.60;116913;1188;24166;-61
2022/03/07 03:32:41;;;;;;;9.70;5.70;;;;;;;2.92;54.40;100742.00;116947;1188;21856;-61
2022/03/07 03:35:10;;;;;;;9.70;6.10;;;;;;;2.91;54.36;100744.03;116948;1188;23553;-62
2022/03/07 03:37:39;;;;;;;9.90;6.10;;;;;;;2.90;54.48;100742.10;116964;1188;23579;-61
2022/03/07 03:40:09;;;;;;;8.80;5.50;;;;;;;2.90;54.48;100741.77;116980;1189;21855;-50
2022/03/07 03:42:38;;;;;;;;;;;;;;;2.89;54.52;100739.85;116917;1189;21859;-63
2022/03/07 03:45:10;;;;;;;9.80;5.90;;;;;;;2.90;54.50;100739.35;116978;1188;23553;-50
2022/03/07 03:47:40;;;;;;;10.30;6.60;;;;;;;2.89;54.49;100733.77;116847;1189;23667;-64
2022/03/07 03:50:10;;;;;;;9.40;6.30;;;;;;;2.90;54.50;100736.39;116849;1189;21855;-50
2022/03/07 03:52:39;;;;;;;9.40;6.10;;;;;;;2.91;54.58;100732.95;116760;1189;23600;-50
2022/03/07 03:55:09;;;;;;;10.20;5.80;;;;;;;2.90;54.63;100733.98;116958;1188;23669;-50
2022/03/07 03:57:39;;;;;;;10.90;6.40;;;;;;;2.91;54.47;100730.02;116964;1188;23010;-51
2022/03/07 04:00:09;;;;;;;10.00;5.70;;;;;;;2.90;54.47;100732.56;117090;1189;23008;-62
2022/03/07 04:02:38;;;;;;;;;;;;;;;2.87;54.53;100731.98;116940;1191;22985;-50
2022/03/07 04:05:07;;;;;;;10.40;5.90;;;;;;;2.83;54.47;100732.96;116925;1189;21852;-49
2022/03/07 04:07:37;;;;;;;8.60;5.60;;;;;;;2.81;54.52;100733.58;116862;1189;21861;-63
2022/03/07 04:10:07;;;;;;;9.10;6.10;;;;;;;2.79;54.54;100726.24;116776;1189;21860;-50
2022/03/07 04:12:35;;;;;;;9.70;6.20;;;;;;;2.78;54.41;100722.77;116942;1189;23687;-61
2022/03/07 04:15:04;;;;;;;10.10;6.70;;;;;;;2.78;54.46;100718.78;116807;1188;24164;-62
2022/03/07 04:17:37;;;;;;;8.70;5.50;;;;;;;2.77;54.49;100716.67;116877;1188;23450;-62
2022/03/07 04:20:06;;;;;;;10.70;6.10;;;;;;;2.78;54.46;100717.91;116958;1188;23027;-49
2022/03/07 04:22:36;;;;;;;10.40;6.10;;;;;;;2.75;54.41;100716.63;116982;1188;24130;-61
2022/03/07 04:25:06;;;;;;;9.90;6.00;;;;;;;2.73;54.49;100715.17;116945;1188;22688;-62
2022/03/07 04:27:41;;;;;;;7.80;5.70;;;;;;;2.73;54.44;100709.63;116923;1189;23464;-50
2022/03/07 04:30:09;;;;;;;8.40;5.80;;;;;;;2.71;54.43;100710.45;116974;1188;22646;-62
2022/03/07 04:32:38;;;;;;;8.20;5.50;;;;;;;2.70;54.45;100706.61;116945;1189;23480;-61
2022/03/07 04:35:08;;;;;;;8.40;5.30;;;;;;;2.67;54.28;100704.80;116971;1188;23626;-60
2022/03/07 04:37:40;;;;;;;8.20;5.20;;;;;;;2.64;54.36;100707.50;116927;1188;23600;-64
2022/03/07 04:40:16;;;;;;;9.60;5.00;;;;;;;2.62;54.42;100703.30;116987;1188;23459;-50
2022/03/07 04:42:44;;;;;;;11.20;5.20;;;;;;;2.62;54.59;100701.23;117007;1189;21918;-62
2022/03/07 04:45:13;;;;;;;9.10;5.40;;;;;;;2.64;54.53;100699.36;116992;1188;22622;-64
2022/03/07 04:47:42;;;;;;;9.70;5.00;;;;;;;2.67;54.41;100702.90;116954;1189;21858;-50
2022/03/07 04:50:12;;;;;;;9.30;5.50;;;;;;;2.72;54.70;100705.44;116951;1188;22951;-50
2022/03/07 04:52:42;;;;;;;8.70;5.50;;;;;;;2.77;54.71;100705.08;116962;1189;23479;-50
2022/03/07 04:55:11;;;;;;;10.10;6.50;;;;;;;2.80;54.60;100704.11;116947;1188;23566;-51
2022/03/07 04:57:43;;;;;;;9.30;6.10;;;;;;;2.83;54.70;100703.48;116971;1188;21857;-66
2022/03/07 05:00:13;;;;;;;10.00;6.70;;;;;;;2.80;54.63;100703.73;116852;1188;21847;-56
2022/03/07 05:02:41;;;;;;;10.00;6.40;;;;;;;2.74;54.47;100699.77;116975;1188;22617;-50
2022/03/07 05:05:10;;;;;;;10.70;7.60;;;;;;;2.70;54.52;100700.02;117026;1189;21904;-50
2022/03/07 05:07:40;;;;;;;9.70;6.80;;;;;;;2.68;54.33;100703.44;117053;1188;23005;-55
2022/03/07 05:10:09;;;;;;;10.40;6.60;;;;;;;2.67;54.58;100701.88;116996;1188;22937;-62
2022/03/07 05:12:37;;;;;;;10.60;6.90;;;;;;;2.69;54.53;100697.05;116985;1188;23468;-63
2022/03/07 05:15:07;;;;;;;10.80;6.70;;;;;;;2.70;54.54;100692.05;116954;1188;23466;-51
2022/03/07 05:17:43;;;;;;;10.30;6.60;;;;;;;2.69;54.52;100693.08;117023;1188;22949;-50
2022/03/07 05:20:12;;;;;;;10.60;6.90;;;;;;;2.69;54.57;100689.61;116963;1188;21852;-62
2022/03/07 05:22:43;;;;;;;9.00;6.50;;;;;;;2.67;54.31;100683.49;116848;1189;22925;-61
2022/03/07 05:25:12;;;;;;;11.50;7.60;;;;;;;2.67;54.40;100682.65;117005;1188;24174;-49
2022/03/07 05:27:40;;;;;;;9.70;6.80;;;;;;;2.66;54.25;100675.84;116858;1189;22978;-49
2022/03/07 05:30:14;;;;;;;10.30;6.70;;;;;;;2.68;54.42;100674.17;116969;1189;21854;-50
2022/03/07 05:32:47;;;;;;;10.90;7.00;;;;;;;2.71;54.54;100673.37;116979;1189;22960;-63
2022/03/07 05:35:16;;;;;;;10.50;7.20;;;;;;;2.72;54.57;100669.77;117033;1190;21843;-62
2022/03/07 05:37:45;;;;;;;11.40;7.40;;;;;;;2.72;54.53;100669.06;116988;1189;21846;-50
2022/03/07 05:40:14;;;;;;;10.70;7.40;;;;;;;2.72;54.34;100667.84;116968;1189;23558;-51
2022/03/07 05:42:43;;;;;;;10.70;7.10;;;;;;;2.71;54.43;100665.23;116990;1184;22051;-51
2022/03/07 05:45:12;;;;;;;13.40;8.00;;;;;;;2.70;54.49;100661.91;117022;1189;21960;-63
2022/03/07 05:47:41;;;;;;;13.70;7.80;;;;;;;2.70;54.49;100663.81;117002;1188;23560;-63
2022/03/07 05:50:10;;;;;;;10.00;6.90;;;;;;;2.70;54.58;100666.59;116995;1188;21848;-50
2022/03/07 05:52:38;;;;;;;12.80;8.40;;;;;;;2.71;54.57;100667.30;116936;1189;21907;-50
2022/03/07 05:55:08;;;;;;;10.80;7.30;;;;;;;2.74;54.60;100668.75;116990;1188;24150;-50
2022/03/07 05:57:37;;;;;;;10.90;7.00;;;;;;;2.77;54.61;100672.13;117797;1189;22970;-62
2022/03/07 06:00:08;;;;;;;11.90;7.50;;;;;;;2.81;54.67;100678.46;117030;1188;23574;-51
2022/03/07 06:02:36;;;;;;;11.00;7.40;;;;;;;2.80;54.67;100680.17;117020;1188;21905;-63
2022/03/07 06:05:06;;;;;;;11.20;7.30;;;;;;;2.77;54.47;100683.56;116995;1184;21850;-63
2022/03/07 06:07:34;;;;;;;10.20;6.50;;;;;;;2.75;54.63;100682.48;116959;1189;23649;-51
2022/03/07 06:10:03;;;;;;;9.10;6.10;;;;;;;2.75;54.52;100685.23;116991;1188;24213;-62
2022/03/07 06:12:31;;;;;;;11.00;6.50;;;;;;;2.75;54.52;100685.61;116997;1188;22313;-51
2022/03/07 06:15:04;;;;;;;11.00;6.30;;;;;;;2.77;54.51;100686.16;116955;1188;23567;-51
2022/03/07 06:17:33;;;;;;;12.80;7.00;;;;;;;2.77;54.50;100685.64;116956;1188;21885;-63
2022/03/07 06:20:04;;;;;;;9.40;6.50;;;;;;;2.79;54.69;100686.73;116948;1188;24362;-50
2022/03/07 06:22:36;;;;;;;12.90;7.10;;;;;;;2.81;54.58;100686.27;116932;1188;23551;-62
2022/03/07 06:25:05;;;;;;;10.30;6.70;;;;;;;2.81;54.55;100687.33;116858;1188;23557;-50
2022/03/07 06:27:34;;;;;;;10.40;6.80;;;;;;;2.85;54.61;100688.44;117398;1188;23744;-63
2022/03/07 06:30:03;;;;;;;10.10;7.20;;;;;;;2.88;54.73;100682.25;116986;1188;24174;-63
2022/03/07 06:32:31;;;;;;;11.50;7.00;;;;;;;2.90;54.57;100683.20;116958;1188;21857;-50
2022/03/07 06:34:59;;;;;;;11.10;7.60;;;;;;;2.93;54.64;100688.45;116902;1189;21892;-51
2022/03/07 06:37:28;;;;;;;12.80;7.20;;;;;;;2.95;54.67;100687.10;116977;1189;21898;-50
2022/03/07 06:39:57;;;;;;;12.70;6.80;;;;;;;3.00;54.84;100685.85;116975;1188;22810;-50
2022/03/07 06:42:25;;;;;;;11.60;7.20;;;;;;;3.08;54.90;100685.86;116999;1188;21856;-63
2022/03/07 06:44:53;;;;;;;11.80;7.70;;;;;;;3.16;54.91;100681.52;116934;1188;22653;-50
2022/03/07 06:47:22;;;;;;;9.60;6.50;;;;;;;3.22;54.72;100685.13;116948;1188;21879;-63
2022/03/07 06:49:56;;;;;;;9.80;6.80;;;;;;;3.24;54.73;100680.51;116899;1189;22935;-65
2022/03/07 06:52:25;;;;;;;11.40;7.70;;;;;;;3.27;54.67;100678.31;116856;1188;22927;-65
2022/03/07 06:54:53;;;;;;;10.20;6.70;;;;;;;3.34;54.87;100674.81;116912;1188;24235;-49
2022/03/07 06:57:21;;;;;;;11.00;7.20;;;;;;;3.36;54.72;100676.77;116929;1189;22948;-64
2022/03/07 06:59:50;;;;;;;13.40;8.10;;;;;;;3.36;54.79;100672.10;116758;1190;23612;-53
2022/03/07 07:02:18;;;;;;;11.00;7.20;;;;;;;3.39;54.62;100675.79;116977;1189;23450;-64
2022/03/07 07:04:47;;;;;;;11.10;7.40;;;;;;;3.39;54.70;100677.02;116890;1184;24162;-50
2022/03/07 07:07:16;;;;;;;12.30;7.90;;;;;;;3.39;54.82;100673.73;116958;1189;23657;-49
2022/03/07 07:09:50;;;;;;;10.70;7.20;;;;;;;3.40;54.67;100669.23;117467;1189;21857;-64
2022/03/07 07:12:18;;;;;;;12.10;7.30;;;;;;;3.41;54.58;100668.55;117000;1188;23583;-49
2022/03/07 07:14:47;;;;;;;11.20;7.10;;;;;;;3.43;54.66;100667.02;117000;1188;21854;-64
2022/03/07 07:17:17;;;;;;;11.60;8.00;;;;;;;3.43;54.72;100662.86;116975;1188;22929;-64
2022/03/07 07:19:45;;;;;;;11.20;7.90;;;;;;;3.42;54.62;100659.90;116983;1188;21857;-64
2022/03/07 07:22:14;;;;;;;11.40;7.50;;;;;;;3.39;54.55;100656.02;116955;1189;23579;-50
2022/03/07 07:24:43;;;;;;;12.90;8.70;;;;;;;3.38;54.60;100657.39;117253;1188;21866;-64
2022/03/07 07:27:12;;;;;;;15.10;7.70;;;;;;;3.41;54.58;100657.27;116964;1188;21863;-65
2022/03/07 07:29:40;;;;;;;12.50;8.50;;;;;;;3.45;54.72;100651.82;116827;1189;23453;-50
2022/03/07 07:32:09;;;;;;;11.90;7.90;;;;;;;3.50;54.62;100652.09;116852;1191;22350;-50
2022/03/07 07:34:37;;;;;;;12.40;8.60;;;;;;;3.54;54.67;100645.41;116995;1189;24015;-64
2022/03/07 07:37:07;;;;;;;10.80;7.60;;;;;;;3.57;54.65;100647.35;116910;1185;21992;-51
2022/03/07 07:39:42;;;;;;;11.40;7.40;;;;;;;3.59;54.69;100639.60;116630;1189;22952;-50
2022/03/07 07:42:11;;;;;;;11.40;7.70;;;;;;;3.61;54.69;100639.98;117073;1188;23479;-65
2022/03/07 07:44:40;;;;;;;11.50;8.10;;;;;;;3.64;54.61;100638.14;116906;1189;23554;-64
2022/03/07 07:47:09;;;;;;;11.50;8.00;;;;;;;3.64;54.67;100634.52;116792;1190;21854;-50
2022/03/07 07:49:38;;;;;;;17.20;10.40;;;;;;;3.67;54.57;100630.58;117111;1189;24296;-64
2022/03/07 07:52:06;;;;;;;11.40;7.40;;;;;;;3.70;54.73;100630.98;116941;1188;21942;-51
2022/03/07 07:54:35;;;;;;;10.80;7.40;;;;;;;3.72;54.75;100628.95;116936;1188;23453;-51
2022/03/07 07:57:07;;;;;;;14.20;8.40;;;;;;;3.78;54.77;100627.48;116831;1189;23459;-67
2022/03/07 07:59:35;;;;;;;10.10;6.80;;;;;;;3.84;54.81;100624.98;116777;1189;22624;-53
2022/03/07 08:02:22;;;;;;;9.50;6.70;;;;;;;3.89;54.79;100624.39;116852;1189;23670;-65
2022/03/07 08:04:54;;;;;;;11.60;7.20;;;;;;;3.95;54.86;100621.55;116888;1189;22918;-66
2022/03/07 08:07:28;;;;;;;11.10;7.00;;;;;;;4.00;54.87;100615.05;116828;1189;23548;-66
2022/03/07 08:09:57;;;;;;;10.20;6.90;;;;;;;4.13;54.89;100614.75;116854;1189;22649;-51
2022/03/07 08:12:27;;;;;;;9.70;6.50;;;;;;;4.22;54.74;100612.48;116940;1189;22902;-66
2022/03/07 08:14:56;;;;;;;14.40;9.10;;;;;;;4.29;54.85;100610.17;116709;1189;21906;-52
2022/03/07 08:17:24;;;;;;;11.70;7.80;;;;;;;4.36;54.73;100610.29;116934;1189;21986;-50
2022/03/07 08:19:54;;;;;;;11.60;7.60;;;;;;;4.43;54.65;100608.84;117047;1188;24211;-65
2022/03/07 08:22:22;;;;;;;11.10;7.50;;;;;;;4.55;54.92;100605.73;116964;1188;21854;-66
2022/03/07 08:24:51;;;;;;;13.90;9.80;;;;;;;4.67;54.92;100605.55;116874;1188;21845;-51
2022/03/07 08:27:19;;;;;;;13.70;9.30;;;;;;;4.76;54.99;100603.10;118934;1188;22549;-53
2022/03/07 08:29:47;;;;;;;11.60;7.80;;;;;;;4.88;55.03;100603.63;117641;1188;22881;-66
2022/03/07 08:32:15;;;;;;;10.50;6.90;;;;;;;5.01;54.97;100599.30;117061;1188;22665;-66
2022/03/07 08:34:44;;;;;;;9.40;6.00;;;;;;;5.15;54.91;100599.65;117070;1188;23588;-51
2022/03/07 08:37:12;;;;;;;9.30;6.30;;;;;;;5.24;54.77;100595.42;116850;1189;22811;-51
2022/03/07 08:39:41;;;;;;;10.70;5.70;;;;;;;5.32;54.94;100592.91;116955;1189;21845;-64
2022/03/07 08:42:10;;;;;;;9.60;5.80;;;;;;;5.36;54.76;100586.35;116981;1188;23544;-66
2022/03/07 08:44:39;;;;;;;7.00;5.40;;;;;;;5.42;54.54;100587.64;116949;1188;24331;-52
2022/03/07 08:47:08;;;;;;;9.20;4.90;;;;;;;5.45;54.54;100585.94;117014;1188;23601;-51
2022/03/07 08:49:36;;;;;;;9.80;5.50;;;;;;;5.40;54.64;100584.13;116890;1188;23496;-51
2022/03/07 08:52:05;;;;;;;7.70;4.80;;;;;;;5.41;54.81;100583.27;116945;1188;22607;-66
2022/03/07 08:54:35;;;;;;;7.70;4.70;;;;;;;5.45;54.49;100580.72;116998;1188;22934;-53
2022/03/07 08:57:05;;;;;;;8.20;5.00;;;;;;;5.46;54.43;100581.95;116942;1188;23598;-52
2022/03/07 08:59:34;;;;;;;6.00;4.20;;;;;;;5.49;54.51;100580.07;116969;1188;23579;-52
2022/03/07 09:02:03;;;;;;;7.20;5.10;;;;;;;5.52;54.53;100574.35;116899;1188;22332;-65
2022/03/07 09:04:32;;;;;;;6.00;4.10;;;;;;;5.57;54.74;100574.76;116868;1188;22980;-53
2022/03/07 09:07:01;;;;;;;7.70;4.80;;;;;;;5.61;54.52;100568.55;116890;1188;21914;-53
2022/03/07 09:09:29;;;;;;;7.60;4.60;;;;;;;5.64;54.52;100565.61;116936;1188;21842;-64
2022/03/07 09:12:01;;;;;;;6.60;4.40;;;;;;;5.71;54.73;100564.12;116913;1188;22840;-52
2022/03/07 09:14:30;;;;;;;7.10;4.10;;;;;;;5.79;54.60;100561.07;116959;1189;24749;-53
2022/03/07 09:16:58;;;;;;;7.90;4.70;;;;;;;5.81;54.54;100562.13;116984;1188;23635;-53
2022/03/07 09:19:28;;;;;;;6.70;4.20;;;;;;;5.80;54.58;100559.52;116902;1189;23668;-66
2022/03/07 09:21:56;;;;;;;7.20;4.60;;;;;;;5.82;54.52;100558.66;116762;1190;23640;-53
2022/03/07 09:24:25;;;;;;;6.90;4.30;;;;;;;5.86;54.74;100554.86;116927;1189;23698;-52
2022/03/07 09:26:53;;;;;;;8.50;4.90;;;;;;;5.89;54.57;100551.58;116919;1188;23386;-66
2022/03/07 09:29:24;;;;;;;8.10;4.20;;;;;;;5.96;54.56;100549.05;116899;1189;21868;-66
2022/03/07 09:31:52;;;;;;;6.10;4.00;;;;;;;6.08;54.70;100546.58;116844;1189;22991;-66
2022/03/07 09:34:21;;;;;;;7.00;4.50;;;;;;;6.15;54.79;100547.33;116879;1189;21899;-54
2022/03/07 09:36:50;;;;;;;6.90;4.40;;;;;;;6.22;54.99;100546.86;116838;1186;22980;-51
2022/03/07 09:39:18;;;;;;;8.00;4.50;;;;;;;6.30;54.86;100542.56;116842;1189;23025;-52
2022/03/07 09:41:47;;;;;;;7.00;4.30;;;;;;;6.45;55.04;100538.84;116691;1190;22274;-52
2022/03/07 09:44:15;;;;;;;6.50;4.10;;;;;;;6.62;54.95;100540.52;116769;1189;22398;-52
2022/03/07 09:46:45;;;;;;;6.90;4.10;;;;;;;6.77;55.04;100539.93;116973;1189;23638;-66
2022/03/07 09:49:13;;;;;;;6.70;4.30;;;;;;;6.83;54.63;100541.35;116695;1190;22609;-54
2022/03/07 09:51:43;;;;;;;6.60;4.40;;;;;;;6.96;55.01;100534.45;116671;1190;21979;-66
2022/03/07 09:54:12;;;;;;;5.90;4.50;;;;;;;7.00;54.44;100532.89;116888;1189;23576;-53
2022/03/07 09:56:41;;;;;;;7.20;4.90;;;;;;;7.01;54.47;100530.98;116903;1189;23457;-54
2022/03/07 09:59:10;;;;;;;7.20;4.40;;;;;;;7.08;54.85;100527.17;116866;1189;24162;-54
2022/03/07 10:01:39;;;;;;;6.50;4.00;;;;;;;7.21;54.66;100525.30;116891;1189;23552;-54
2022/03/07 10:04:12;;;;;;;6.40;4.90;;;;;;;7.27;54.66;100518.52;116946;1188;23488;-65
2022/03/07 10:06:48;;;;;;;8.90;6.20;;;;;;;7.26;54.46;100517.30;116906;1189;22617;-55
2022/03/07 10:09:24;;;;;;;7.00;5.00;;;;;;;7.12;53.93;100515.50;116769;1189;21861;-54
2022/03/07 10:11:54;;;;;;;6.40;4.40;;;;;;;6.95;54.07;100509.84;116951;1189;22621;-65
2022/03/07 10:14:52;;;;;;;14.50;8.70;;;;;;;6.88;54.18;100505.44;116852;1187;22935;-55
2022/03/07 10:17:26;;;;;;;7.00;4.70;;;;;;;6.78;53.68;100503.84;116688;1192;21858;-65
2022/03/07 10:19:56;;;;;;;4.80;3.40;;;;;;;6.68;53.94;100506.21;116649;1191;21859;-52
2022/03/07 10:22:26;;;;;;;6.10;4.00;;;;;;;6.61;54.05;100507.05;116700;1191;21976;-65
2022/03/07 10:25:01;;;;;;;5.40;3.60;;;;;;;6.57;54.13;100501.96;116668;1191;21863;-65
2022/03/07 10:27:39;;;;;;;5.80;3.40;;;;;;;6.55;54.18;100499.34;116761;1190;24333;-53
2022/03/07 10:30:14;;;;;;;5.30;2.90;;;;;;;6.51;53.81;100497.22;116662;1190;23727;-53
2022/03/07 10:32:50;;;;;;;5.50;3.50;;;;;;;6.48;53.95;100495.11;116688;1191;22032;-65
2022/03/07 10:35:47;;;;;;;5.10;3.50;;;;;;;6.44;53.77;100489.15;116642;1191;24785;-63
2022/03/07 10:38:18;;;;;;;7.00;3.80;;;;;;;6.30;53.98;100484.88;116702;1191;21861;-65
2022/03/07 10:40:53;;;;;;;6.30;4.00;;;;;;;6.22;54.03;100481.50;116650;1190;21861;-66
2022/03/07 10:43:23;;;;;;;5.80;4.00;;;;;;;6.24;53.97;100481.17;116542;1191;23632;-54
2022/03/07 10:45:56;;;;;;;6.20;4.70;;;;;;;6.20;53.82;100478.52;116607;1192;22013;-55
2022/03/07 10:48:27;;;;;;;5.80;3.40;;;;;;;6.17;53.82;100477.30;116903;1192;21874;-63
2022/03/07 10:50:57;;;;;;;5.70;3.90;;;;;;;6.23;53.83;100472.45;116736;1190;21851;-55
2022/03/07 10:53:25;;;;;;;7.40;4.60;;;;;;;6.39;54.05;100467.34;116688;1191;21860;-64
2022/03/07 10:56:00;;;;;;;5.50;4.00;;;;;;;6.55;54.09;100467.96;116728;1189;24205;-52
2022/03/07 10:58:49;;;;;;;5.60;3.90;;;;;;;6.60;53.48;100466.59;116638;1189;23608;-52
2022/03/07 11:01:32;;;;;;;6.40;4.20;;;;;;;6.59;53.81;100461.88;116660;1190;21903;-52
2022/03/07 11:04:01;;;;;;;7.00;4.20;;;;;;;6.57;53.30;100454.55;116898;1188;21889;-53
2022/03/07 11:06:29;;;;;;;9.10;5.30;;;;;;;6.55;53.37;100451.57;116758;1189;21969;-52
2022/03/07 11:08:58;;;;;;;5.90;4.20;;;;;;;6.47;53.33;100448.21;116852;1188;23731;-53
2022/03/07 11:11:42;;;;;;;6.70;4.30;;;;;;;6.45;53.35;100443.83;116793;1188;23600;-64
2022/03/07 11:14:13;;;;;;;7.10;4.90;;;;;;;6.56;53.68;100442.67;116671;1189;21849;-53
2022/03/07 11:16:41;;;;;;;6.00;4.20;;;;;;;6.68;53.87;100440.64;116874;1188;22993;-64
2022/03/07 11:19:11;;;;;;;5.50;3.70;;;;;;;6.73;53.65;100438.58;116658;1189;22627;-63
2022/03/07 11:21:41;;;;;;;6.80;4.90;;;;;;;6.71;53.62;100433.33;116773;1188;21856;-63
2022/03/07 11:24:10;;;;;;;6.70;4.20;;;;;;;6.77;53.70;100428.83;116814;1189;23561;-51
2022/03/07 11:26:42;;;;;;;6.10;4.20;;;;;;;6.71;53.45;100425.15;116877;1188;22836;-52
2022/03/07 11:29:10;;;;;;;6.50;3.90;;;;;;;6.64;53.55;100428.24;116581;1189;23646;-64
2022/03/07 11:31:39;;;;;;;6.80;4.00;;;;;;;6.62;53.33;100423.35;116882;1188;23624;-52
2022/03/07 11:34:09;;;;;;;6.60;4.70;;;;;;;6.60;53.21;100425.63;116801;1189;21869;-53
2022/03/07 11:36:41;;;;;;;7.60;4.70;;;;;;;6.53;53.10;100421.74;116972;1188;24178;-66